Time;durP1;ratioP1;P1;durP2;ratioP2;P2;SDS_P1;SDS_P2;PMS_P1;PMS_P2;Temp;Humidity;BMP_temperature;BMP_pressure;BME280_temperature;BME280_humidity;BME280_pressure;Samples;Min_cycle;Max_cycle;Signal;HPM_P1;HPM_P2
2023/08/09 00:00:52;;;;;;;20.70;16.25;;;;;;;;;;4953642;28;20023;-49
2023/08/09 00:03:18;;;;;;;20.13;15.40;;;;;;;;;;4953420;28;20031;-49
2023/08/09 00:05:44;;;;;;;17.67;14.57;;;;;;;;;;4953298;28;20150;-51
2023/08/09 00:08:10;;;;;;;18.52;14.60;;;;;;;;;;4953332;28;20023;-50
2023/08/09 00:10:36;;;;;;;18.77;14.13;;;;;;;;;;4953308;28;20031;-54
2023/08/09 00:13:02;;;;;;;18.77;13.73;;;;;;;;;;4953343;28;20066;-49
2023/08/09 00:15:28;;;;;;;19.02;14.13;;;;;;;;;;4952884;28;20050;-54
2023/08/09 00:17:54;;;;;;;18.60;14.40;;;;;;;;;;4947056;28;20027;-54
2023/08/09 00:20:20;;;;;;;19.50;13.52;;;;;;;;;;4953343;28;20041;-49
2023/08/09 00:22:47;;;;;;;17.52;12.82;;;;;;;;;;4954361;28;20110;-49
2023/08/09 00:25:13;;;;;;;18.13;14.65;;;;;;;;;;4953177;28;20434;-51
2023/08/09 00:27:39;;;;;;;18.15;13.70;;;;;;;;;;4953268;28;20387;-49
2023/08/09 00:30:07;;;;;;;17.45;14.35;;;;;;;;;;4951954;29;20447;-49
2023/08/09 00:32:33;;;;;;;18.98;14.57;;;;;;;;;;4953059;28;20016;-50
2023/08/09 00:34:59;;;;;;;17.55;14.52;;;;;;;;;;4953237;28;20424;-49
2023/08/09 00:37:26;;;;;;;18.83;15.57;;;;;;;;;;4953144;28;20057;-54
2023/08/09 00:39:52;;;;;;;18.42;14.88;;;;;;;;;;4953044;28;20038;-55
2023/08/09 00:42:18;;;;;;;20.00;15.60;;;;;;;;;;4952801;28;20039;-55
2023/08/09 00:44:44;;;;;;;18.88;14.63;;;;;;;;;;4952789;28;20038;-53
2023/08/09 00:47:10;;;;;;;18.45;14.10;;;;;;;;;;4953147;29;20678;-49
2023/08/09 00:49:37;;;;;;;18.77;14.18;;;;;;;;;;4947234;28;20046;-48
2023/08/09 00:52:04;;;;;;;16.90;13.75;;;;;;;;;;4952658;28;20027;-50
2023/08/09 00:54:30;;;;;;;19.92;14.23;;;;;;;;;;4952363;28;20040;-49
2023/08/09 00:56:56;;;;;;;21.73;14.90;;;;;;;;;;4954698;28;20031;-50
2023/08/09 00:59:22;;;;;;;20.33;15.23;;;;;;;;;;4952006;28;20383;-52
2023/08/09 01:01:48;;;;;;;21.15;14.20;;;;;;;;;;4953073;28;20114;-55
2023/08/09 01:04:15;;;;;;;18.08;12.93;;;;;;;;;;4949191;28;20036;-56
2023/08/09 01:06:53;;;;;;;20.50;13.98;;;;;;;;;;4951254;28;20031;-53
2023/08/09 01:09:40;;;;;;;19.30;13.80;;;;;;;;;;4952670;28;20031;-54
2023/08/09 01:12:14;;;;;;;18.75;14.15;;;;;;;;;;4948797;28;20032;-52
2023/08/09 01:14:42;;;;;;;19.23;14.32;;;;;;;;;;4952397;28;20487;-55
2023/08/09 01:17:09;;;;;;;21.45;14.27;;;;;;;;;;4952652;28;20114;-52
2023/08/09 01:19:35;;;;;;;19.17;13.98;;;;;;;;;;4951411;28;20035;-48
2023/08/09 01:22:05;;;;;;;18.52;13.38;;;;;;;;;;4952312;28;20042;-51
2023/08/09 01:24:31;;;;;;;19.67;13.95;;;;;;;;;;4952071;28;20035;-50
2023/08/09 01:26:58;;;;;;;20.55;14.15;;;;;;;;;;4951036;28;20028;-56
2023/08/09 01:29:24;;;;;;;20.67;14.57;;;;;;;;;;4952592;28;20523;-55
2023/08/09 01:31:50;;;;;;;19.05;13.80;;;;;;;;;;4952958;28;20093;-52
2023/08/09 01:34:17;;;;;;;19.92;14.50;;;;;;;;;;4951880;28;20046;-49
2023/08/09 01:36:46;;;;;;;22.50;14.73;;;;;;;;;;4952104;28;20027;-51
2023/08/09 01:39:14;;;;;;;19.42;14.20;;;;;;;;;;4951865;28;20081;-50
2023/08/09 01:41:41;;;;;;;21.30;15.35;;;;;;;;;;4952144;28;20031;-50
2023/08/09 01:44:08;;;;;;;20.50;15.23;;;;;;;;;;4948200;28;20032;-52
2023/08/09 01:46:34;;;;;;;23.48;16.52;;;;;;;;;;4952164;28;20271;-52
2023/08/09 01:49:13;;;;;;;24.35;16.85;;;;;;;;;;4951983;28;20023;-49
2023/08/09 01:51:39;;;;;;;24.25;16.20;;;;;;;;;;4950694;28;20390;-55
2023/08/09 01:54:06;;;;;;;21.83;15.65;;;;;;;;;;4951730;28;20484;-54
2023/08/09 01:56:32;;;;;;;21.65;16.33;;;;;;;;;;4951761;28;20036;-55
2023/08/09 01:58:58;;;;;;;23.23;16.50;;;;;;;;;;4951777;28;20497;-50
2023/08/09 02:01:24;;;;;;;22.77;17.90;;;;;;;;;;4951262;28;20119;-50
2023/08/09 02:03:50;;;;;;;24.73;17.67;;;;;;;;;;4951488;28;20049;-52
2023/08/09 02:06:16;;;;;;;21.98;16.15;;;;;;;;;;4951706;29;20478;-49
2023/08/09 02:08:43;;;;;;;24.08;16.48;;;;;;;;;;4951654;29;20033;-49
2023/08/09 02:11:09;;;;;;;25.52;17.20;;;;;;;;;;4951705;29;20035;-50
2023/08/09 02:13:35;;;;;;;25.13;16.48;;;;;;;;;;4951494;28;20028;-49
2023/08/09 02:16:05;;;;;;;23.75;16.23;;;;;;;;;;4951302;29;20545;-54
2023/08/09 02:18:32;;;;;;;24.00;16.50;;;;;;;;;;4950335;29;20027;-50
2023/08/09 02:20:59;;;;;;;26.05;17.20;;;;;;;;;;4950434;29;20074;-52
2023/08/09 02:23:25;;;;;;;26.92;17.25;;;;;;;;;;4951403;28;20032;-52
2023/08/09 02:25:53;;;;;;;25.20;17.85;;;;;;;;;;4951206;29;20019;-54
2023/08/09 02:28:19;;;;;;;26.00;18.03;;;;;;;;;;4951426;29;20373;-50
2023/08/09 02:30:45;;;;;;;25.55;17.58;;;;;;;;;;4951351;29;20456;-52
2023/08/09 02:33:11;;;;;;;25.95;17.67;;;;;;;;;;4950005;28;20045;-52
2023/08/09 02:35:53;;;;;;;28.38;18.45;;;;;;;;;;4947417;29;20039;-51
2023/08/09 02:38:19;;;;;;;27.15;18.50;;;;;;;;;;4951052;28;20114;-53
2023/08/09 02:40:45;;;;;;;28.45;18.67;;;;;;;;;;4951093;28;20106;-54
2023/08/09 02:43:11;;;;;;;26.50;17.67;;;;;;;;;;4951103;28;20032;-53
2023/08/09 02:45:38;;;;;;;26.48;17.25;;;;;;;;;;4951085;28;20023;-52
2023/08/09 02:48:04;;;;;;;24.45;16.83;;;;;;;;;;4951133;28;20023;-51
2023/08/09 02:50:30;;;;;;;25.60;17.25;;;;;;;;;;4951190;28;20464;-52
2023/08/09 02:52:56;;;;;;;25.60;16.80;;;;;;;;;;4951144;28;20027;-50
2023/08/09 02:55:22;;;;;;;27.92;17.88;;;;;;;;;;4950804;28;20480;-49
2023/08/09 02:57:48;;;;;;;26.25;18.10;;;;;;;;;;4951058;28;20035;-55
2023/08/09 03:00:18;;;;;;;27.58;18.13;;;;;;;;;;4951085;28;20054;-52
2023/08/09 03:02:44;;;;;;;26.27;17.75;;;;;;;;;;4949677;28;20038;-53
2023/08/09 03:05:10;;;;;;;27.15;18.92;;;;;;;;;;4950863;28;20019;-49
2023/08/09 03:07:36;;;;;;;25.45;17.65;;;;;;;;;;4950902;28;20468;-51
2023/08/09 03:10:03;;;;;;;27.58;18.95;;;;;;;;;;4950913;28;20031;-51
2023/08/09 03:12:29;;;;;;;25.88;17.92;;;;;;;;;;4950325;28;20111;-53
2023/08/09 03:14:55;;;;;;;24.75;17.88;;;;;;;;;;4950420;28;20037;-52
2023/08/09 03:17:21;;;;;;;25.33;18.80;;;;;;;;;;4950883;28;20392;-55
2023/08/09 03:19:47;;;;;;;25.83;18.50;;;;;;;;;;4950710;28;20027;-52
2023/08/09 03:22:13;;;;;;;25.40;19.02;;;;;;;;;;4950733;28;20118;-52
2023/08/09 03:24:39;;;;;;;24.70;19.35;;;;;;;;;;4950149;28;20114;-55
2023/08/09 03:27:05;;;;;;;25.95;20.77;;;;;;;;;;4950470;28;20028;-50
2023/08/09 03:29:31;;;;;;;25.65;18.75;;;;;;;;;;4950424;28;20404;-53
2023/08/09 03:31:57;;;;;;;23.98;18.30;;;;;;;;;;4947689;28;20032;-49
2023/08/09 03:34:23;;;;;;;24.98;19.90;;;;;;;;;;4945320;28;20085;-51
2023/08/09 03:36:49;;;;;;;25.17;19.42;;;;;;;;;;4949185;28;20035;-51
2023/08/09 03:39:15;;;;;;;25.27;20.48;;;;;;;;;;4950395;28;20475;-51
2023/08/09 03:41:41;;;;;;;25.90;20.38;;;;;;;;;;4950036;28;20031;-51
2023/08/09 03:44:07;;;;;;;23.70;17.83;;;;;;;;;;4949816;28;20638;-55
2023/08/09 03:46:34;;;;;;;25.02;17.90;;;;;;;;;;4950285;28;20027;-53
2023/08/09 03:49:00;;;;;;;24.63;17.45;;;;;;;;;;4949132;28;20024;-56
2023/08/09 03:51:26;;;;;;;24.98;17.65;;;;;;;;;;4950580;28;20059;-57
2023/08/09 03:53:52;;;;;;;26.83;19.63;;;;;;;;;;4950309;28;20081;-57
2023/08/09 03:56:18;;;;;;;23.88;19.10;;;;;;;;;;4950002;28;20047;-55
2023/08/09 03:58:44;;;;;;;24.35;19.52;;;;;;;;;;4950223;28;20055;-54
2023/08/09 04:01:11;;;;;;;24.40;19.08;;;;;;;;;;4950363;28;20057;-50
2023/08/09 04:03:38;;;;;;;25.63;19.90;;;;;;;;;;4949774;28;20077;-51
2023/08/09 04:06:05;;;;;;;24.83;19.08;;;;;;;;;;4949805;28;20099;-54
2023/08/09 04:08:31;;;;;;;24.85;18.52;;;;;;;;;;4950078;28;20042;-52
2023/08/09 04:10:57;;;;;;;25.58;18.83;;;;;;;;;;4948793;28;20035;-50
2023/08/09 04:13:24;;;;;;;23.90;19.35;;;;;;;;;;4950020;28;20023;-53
2023/08/09 04:15:50;;;;;;;24.63;19.38;;;;;;;;;;4949665;28;20023;-53
2023/08/09 04:18:16;;;;;;;22.40;18.13;;;;;;;;;;4948938;28;20089;-53
2023/08/09 04:20:43;;;;;;;23.60;19.25;;;;;;;;;;4950005;28;20407;-52
2023/08/09 04:23:09;;;;;;;26.55;18.33;;;;;;;;;;4949662;28;20039;-49
2023/08/09 04:25:35;;;;;;;24.40;19.85;;;;;;;;;;4951161;28;20031;-50
2023/08/09 04:28:02;;;;;;;24.88;19.60;;;;;;;;;;4953209;28;20020;-55
2023/08/09 04:30:28;;;;;;;23.02;17.90;;;;;;;;;;4952991;28;20505;-52
2023/08/09 04:32:55;;;;;;;24.42;18.23;;;;;;;;;;4953100;28;20047;-53
2023/08/09 04:35:21;;;;;;;23.83;17.98;;;;;;;;;;4952732;28;20035;-52
2023/08/09 04:37:47;;;;;;;23.70;18.60;;;;;;;;;;4952797;28;20039;-50
2023/08/09 04:40:13;;;;;;;24.27;18.20;;;;;;;;;;4952893;28;20031;-51
2023/08/09 04:42:40;;;;;;;24.73;19.42;;;;;;;;;;4951414;28;20129;-49
2023/08/09 04:45:07;;;;;;;23.73;18.65;;;;;;;;;;4952695;28;20557;-51
2023/08/09 04:47:34;;;;;;;24.88;18.65;;;;;;;;;;4952776;28;20028;-48
2023/08/09 04:50:00;;;;;;;23.30;17.67;;;;;;;;;;4952458;28;20016;-52
2023/08/09 04:52:26;;;;;;;26.00;18.27;;;;;;;;;;4952698;28;20027;-51
2023/08/09 04:54:52;;;;;;;24.13;18.45;;;;;;;;;;4952393;28;20047;-53
2023/08/09 04:57:18;;;;;;;40.67;20.35;;;;;;;;;;4952831;28;20503;-52
2023/08/09 04:59:44;;;;;;;24.52;18.95;;;;;;;;;;4952906;28;20039;-52
2023/08/09 05:02:10;;;;;;;23.75;18.52;;;;;;;;;;4952754;28;20023;-50
2023/08/09 05:04:36;;;;;;;24.55;18.25;;;;;;;;;;4951375;28;20063;-52
2023/08/09 05:07:04;;;;;;;24.98;18.95;;;;;;;;;;4952854;28;20364;-53
2023/08/09 05:09:30;;;;;;;25.53;17.90;;;;;;;;;;4952558;29;20054;-55
2023/08/09 05:11:56;;;;;;;24.25;17.95;;;;;;;;;;4952368;28;20030;-57
2023/08/09 05:14:22;;;;;;;22.67;17.80;;;;;;;;;;4951962;28;20023;-56
2023/08/09 05:16:48;;;;;;;23.42;18.67;;;;;;;;;;4952432;28;20031;-55
2023/08/09 05:19:14;;;;;;;25.88;18.10;;;;;;;;;;4952115;28;20234;-51
2023/08/09 05:21:40;;;;;;;25.40;17.45;;;;;;;;;;4952269;28;20038;-50
2023/08/09 05:24:06;;;;;;;22.85;16.38;;;;;;;;;;4952114;28;20392;-51
2023/08/09 05:26:32;;;;;;;23.35;17.23;;;;;;;;;;4952014;28;20099;-52
2023/08/09 05:28:58;;;;;;;23.30;17.25;;;;;;;;;;4952083;28;20145;-53
2023/08/09 05:31:25;;;;;;;22.13;16.98;;;;;;;;;;4950605;28;20460;-52
2023/08/09 05:33:51;;;;;;;24.77;15.88;;;;;;;;;;4952321;28;20032;-54
2023/08/09 05:36:17;;;;;;;22.48;15.15;;;;;;;;;;4951696;28;20030;-52
2023/08/09 05:38:43;;;;;;;23.98;15.15;;;;;;;;;;4950403;28;20062;-51
2023/08/09 05:41:09;;;;;;;24.35;16.42;;;;;;;;;;4951533;28;20063;-55
2023/08/09 05:43:35;;;;;;;22.73;15.38;;;;;;;;;;4952611;28;20042;-51
2023/08/09 05:46:01;;;;;;;21.55;14.25;;;;;;;;;;4951265;28;20023;-52
2023/08/09 05:48:27;;;;;;;20.30;12.73;;;;;;;;;;4951707;29;20495;-56
2023/08/09 05:50:53;;;;;;;21.73;13.38;;;;;;;;;;4951436;28;20348;-53
2023/08/09 05:53:19;;;;;;;22.58;13.65;;;;;;;;;;4950286;28;20131;-53
2023/08/09 05:55:45;;;;;;;22.70;13.65;;;;;;;;;;4951266;28;20542;-55
2023/08/09 05:58:11;;;;;;;22.15;13.02;;;;;;;;;;4951835;28;20479;-54
2023/08/09 06:00:37;;;;;;;23.08;13.60;;;;;;;;;;4952692;28;20641;-57
2023/08/09 06:03:03;;;;;;;22.08;12.65;;;;;;;;;;4950398;28;20065;-53
2023/08/09 06:05:29;;;;;;;20.77;12.07;;;;;;;;;;4949954;28;20051;-55
2023/08/09 06:07:56;;;;;;;21.05;12.18;;;;;;;;;;4951900;28;20050;-52
2023/08/09 06:10:25;;;;;;;20.73;12.35;;;;;;;;;;4951904;28;20029;-53
2023/08/09 06:12:52;;;;;;;21.48;11.77;;;;;;;;;;4951853;28;20027;-52
2023/08/09 06:15:18;;;;;;;20.30;11.13;;;;;;;;;;4951562;28;20027;-53
2023/08/09 06:17:44;;;;;;;21.38;11.18;;;;;;;;;;4951419;28;20480;-50
2023/08/09 06:20:12;;;;;;;21.73;10.43;;;;;;;;;;4947587;28;20031;-53
2023/08/09 06:22:39;;;;;;;19.63;9.90;;;;;;;;;;4945515;28;20098;-55
2023/08/09 06:25:05;;;;;;;20.85;11.18;;;;;;;;;;4951116;28;20077;-55
2023/08/09 06:27:31;;;;;;;20.38;9.82;;;;;;;;;;4951226;28;20023;-53
2023/08/09 06:29:57;;;;;;;21.42;9.48;;;;;;;;;;4949152;28;20054;-50
2023/08/09 06:32:23;;;;;;;20.25;10.30;;;;;;;;;;4949474;28;20031;-48
2023/08/09 06:34:49;;;;;;;19.17;9.05;;;;;;;;;;4950441;28;20107;-54
2023/08/09 06:37:15;;;;;;;20.52;10.05;;;;;;;;;;4949095;28;20049;-52
2023/08/09 06:39:41;;;;;;;18.92;9.27;;;;;;;;;;4950477;28;20023;-53
2023/08/09 06:42:08;;;;;;;19.25;9.68;;;;;;;;;;4949091;28;20038;-53
2023/08/09 06:44:34;;;;;;;20.77;10.20;;;;;;;;;;4950422;28;20019;-54
2023/08/09 06:47:00;;;;;;;19.38;8.35;;;;;;;;;;4950650;28;20518;-52
2023/08/09 06:49:26;;;;;;;20.70;9.73;;;;;;;;;;4950077;28;20046;-55
2023/08/09 06:51:54;;;;;;;20.15;9.57;;;;;;;;;;4950203;28;20035;-56
2023/08/09 06:54:20;;;;;;;18.80;8.95;;;;;;;;;;4950189;28;20514;-50
2023/08/09 06:56:46;;;;;;;19.02;9.32;;;;;;;;;;4950646;28;20039;-52
2023/08/09 06:59:12;;;;;;;21.50;9.77;;;;;;;;;;4950309;28;20084;-53
2023/08/09 07:01:38;;;;;;;19.75;8.93;;;;;;;;;;4950620;28;20031;-52
2023/08/09 07:04:04;;;;;;;18.73;9.18;;;;;;;;;;4950177;28;20176;-54
2023/08/09 07:06:30;;;;;;;18.85;8.50;;;;;;;;;;4950570;28;20471;-51
2023/08/09 07:08:56;;;;;;;19.98;8.23;;;;;;;;;;4950472;28;20027;-55
2023/08/09 07:11:22;;;;;;;18.58;8.93;;;;;;;;;;4950358;28;20035;-56
2023/08/09 07:13:48;;;;;;;18.02;8.20;;;;;;;;;;5007991;28;20055;-56
2023/08/09 07:16:14;;;;;;;18.85;7.97;;;;;;;;;;5051094;28;20067;-51
2023/08/09 07:18:40;;;;;;;23.65;8.52;;;;;;;;;;5051209;28;20056;-55
2023/08/09 07:21:06;;;;;;;19.50;8.20;;;;;;;;;;5051229;28;20032;-54
2023/08/09 07:23:32;;;;;;;20.10;8.40;;;;;;;;;;5050805;28;20104;-57
2023/08/09 07:25:58;;;;;;;20.23;8.88;;;;;;;;;;5050715;28;20025;-51
2023/08/09 07:28:28;;;;;;;17.75;8.18;;;;;;;;;;5051018;28;20082;-51
2023/08/09 07:30:55;;;;;;;18.10;8.15;;;;;;;;;;5051113;28;20017;-54
2023/08/09 07:33:21;;;;;;;18.58;7.82;;;;;;;;;;5049353;28;20025;-52
2023/08/09 07:35:48;;;;;;;17.17;7.63;;;;;;;;;;5050746;28;20032;-55
2023/08/09 07:38:15;;;;;;;18.88;8.48;;;;;;;;;;5010067;28;20121;-56
2023/08/09 07:40:41;;;;;;;17.70;7.90;;;;;;;;;;4950276;28;20039;-52
2023/08/09 07:43:07;;;;;;;19.27;8.05;;;;;;;;;;4949885;28;20046;-51
2023/08/09 07:45:33;;;;;;;18.23;7.70;;;;;;;;;;4949706;28;20391;-54
2023/08/09 07:47:59;;;;;;;18.17;8.43;;;;;;;;;;4949992;28;20035;-52
2023/08/09 07:50:25;;;;;;;20.50;8.93;;;;;;;;;;4950048;28;20428;-53
2023/08/09 07:52:52;;;;;;;20.80;8.13;;;;;;;;;;4949914;28;20032;-54
2023/08/09 07:55:18;;;;;;;17.92;8.00;;;;;;;;;;4949821;28;20548;-52
2023/08/09 07:57:44;;;;;;;20.58;8.07;;;;;;;;;;4950190;28;20468;-53
2023/08/09 08:00:17;;;;;;;17.65;8.05;;;;;;;;;;4952216;28;20108;-52
2023/08/09 08:02:43;;;;;;;18.15;7.22;;;;;;;;;;4953416;28;20030;-53
2023/08/09 08:05:11;;;;;;;19.67;7.47;;;;;;;;;;4952954;28;20027;-50
2023/08/09 08:07:38;;;;;;;16.92;7.38;;;;;;;;;;4953501;28;20031;-54
2023/08/09 08:10:04;;;;;;;17.35;8.10;;;;;;;;;;4953447;28;20434;-60
2023/08/09 08:12:30;;;;;;;17.88;7.38;;;;;;;;;;4952912;28;20077;-50
2023/08/09 08:14:56;;;;;;;16.63;6.40;;;;;;;;;;4952678;28;20031;-50
2023/08/09 08:17:22;;;;;;;16.85;6.93;;;;;;;;;;4953018;28;20364;-51
2023/08/09 08:19:48;;;;;;;16.40;6.57;;;;;;;;;;4951763;28;20434;-56
2023/08/09 08:22:14;;;;;;;16.52;6.80;;;;;;;;;;4952886;28;20039;-52
2023/08/09 08:24:41;;;;;;;18.98;7.97;;;;;;;;;;4952608;28;20502;-53
2023/08/09 08:27:07;;;;;;;19.63;7.72;;;;;;;;;;4953010;28;20038;-54
2023/08/09 08:29:33;;;;;;;16.58;7.18;;;;;;;;;;4952772;28;20410;-50
2023/08/09 08:31:59;;;;;;;17.30;7.00;;;;;;;;;;4952714;28;20062;-51
2023/08/09 08:34:31;;;;;;;16.50;7.00;;;;;;;;;;4952524;28;20055;-53
2023/08/09 08:36:57;;;;;;;17.35;7.45;;;;;;;;;;4952754;28;20583;-55
2023/08/09 08:39:23;;;;;;;17.63;6.97;;;;;;;;;;4949538;28;20114;-52
2023/08/09 08:41:50;;;;;;;17.33;7.30;;;;;;;;;;4952091;28;20031;-54
2023/08/09 08:44:16;;;;;;;18.00;7.57;;;;;;;;;;4951355;28;20027;-54
2023/08/09 08:46:42;;;;;;;16.65;7.18;;;;;;;;;;4951056;28;20088;-55
2023/08/09 08:49:11;;;;;;;17.55;7.38;;;;;;;;;;4951660;28;20027;-55
2023/08/09 08:51:39;;;;;;;18.70;8.00;;;;;;;;;;4952232;28;20027;-53
2023/08/09 08:54:06;;;;;;;15.90;6.47;;;;;;;;;;4952276;28;20165;-53
2023/08/09 08:56:32;;;;;;;17.05;7.28;;;;;;;;;;4951581;28;20077;-54
2023/08/09 08:58:59;;;;;;;16.73;8.02;;;;;;;;;;4950862;28;20062;-51
2023/08/09 09:01:26;;;;;;;16.13;7.15;;;;;;;;;;4950533;28;20042;-56
2023/08/09 09:03:52;;;;;;;14.60;6.63;;;;;;;;;;4950507;28;20552;-54
2023/08/09 09:06:18;;;;;;;17.52;6.88;;;;;;;;;;4950589;28;20027;-57
2023/08/09 09:08:44;;;;;;;16.83;6.93;;;;;;;;;;4950608;28;20027;-55
2023/08/09 09:11:21;;;;;;;18.02;7.97;;;;;;;;;;4950423;28;20034;-51
2023/08/09 09:13:49;;;;;;;16.52;7.38;;;;;;;;;;4952316;28;20032;-54
2023/08/09 09:16:16;;;;;;;17.30;7.35;;;;;;;;;;4951796;28;20387;-50
2023/08/09 09:18:44;;;;;;;16.63;7.15;;;;;;;;;;4952110;28;20042;-53
2023/08/09 09:21:10;;;;;;;16.20;6.90;;;;;;;;;;4952221;28;20533;-51
2023/08/09 09:23:37;;;;;;;15.63;6.97;;;;;;;;;;4951888;28;20031;-51
2023/08/09 09:26:03;;;;;;;15.02;6.55;;;;;;;;;;4951951;28;20027;-50
2023/08/09 09:28:29;;;;;;;16.38;7.70;;;;;;;;;;4952078;28;20024;-56
2023/08/09 09:30:58;;;;;;;15.60;7.03;;;;;;;;;;4952049;28;20049;-52
2023/08/09 09:33:34;;;;;;;16.30;8.38;;;;;;;;;;4951593;28;20023;-56
2023/08/09 09:36:00;;;;;;;16.98;8.18;;;;;;;;;;4951865;28;20110;-53
2023/08/09 09:38:26;;;;;;;15.68;7.78;;;;;;;;;;4951727;28;20058;-55
2023/08/09 09:40:52;;;;;;;15.07;7.82;;;;;;;;;;4951990;28;20035;-52
2023/08/09 09:43:19;;;;;;;15.20;7.60;;;;;;;;;;4947965;28;20035;-55
2023/08/09 09:45:46;;;;;;;16.73;7.95;;;;;;;;;;4981871;28;20047;-54
2023/08/09 09:48:16;;;;;;;15.60;8.10;;;;;;;;;;4951617;29;20443;-55
2023/08/09 09:50:46;;;;;;;14.85;7.93;;;;;;;;;;4951206;28;20035;-55
2023/08/09 09:53:13;;;;;;;15.45;7.95;;;;;;;;;;4951887;28;20035;-54
2023/08/09 09:55:40;;;;;;;16.25;8.93;;;;;;;;;;4951527;28;20452;-59
2023/08/09 09:58:06;;;;;;;16.67;8.40;;;;;;;;;;4951751;29;20039;-57
2023/08/09 10:00:33;;;;;;;15.38;8.13;;;;;;;;;;4950160;29;20031;-54
2023/08/09 10:03:00;;;;;;;14.57;7.55;;;;;;;;;;4951225;28;20150;-54
2023/08/09 10:05:35;;;;;;;15.95;7.80;;;;;;;;;;4950882;29;20015;-57
2023/08/09 10:08:01;;;;;;;14.75;7.53;;;;;;;;;;4951338;28;20050;-53
2023/08/09 10:10:27;;;;;;;14.65;7.38;;;;;;;;;;4951193;29;20100;-57
2023/08/09 10:12:54;;;;;;;14.32;7.43;;;;;;;;;;4949855;28;20031;-56
2023/08/09 10:15:26;;;;;;;14.07;7.40;;;;;;;;;;4949730;29;20101;-60
2023/08/09 10:17:55;;;;;;;14.20;7.90;;;;;;;;;;4951248;29;20081;-54
2023/08/09 10:20:22;;;;;;;16.63;8.07;;;;;;;;;;4951329;29;20086;-55
2023/08/09 10:22:48;;;;;;;14.60;8.43;;;;;;;;;;4950046;28;20035;-54
2023/08/09 10:25:14;;;;;;;14.65;8.50;;;;;;;;;;4950839;29;20023;-56
2023/08/09 10:27:48;;;;;;;14.77;8.50;;;;;;;;;;4951315;29;20088;-58
2023/08/09 10:30:15;;;;;;;15.52;8.40;;;;;;;;;;4951079;28;20058;-56
2023/08/09 10:32:48;;;;;;;15.77;9.00;;;;;;;;;;4949783;28;20023;-55
2023/08/09 10:35:19;;;;;;;15.73;8.73;;;;;;;;;;4950711;28;20038;-59
2023/08/09 10:37:45;;;;;;;14.30;8.40;;;;;;;;;;4950859;28;20034;-59
2023/08/09 10:40:13;;;;;;;15.10;8.70;;;;;;;;;;4950882;28;20031;-57
2023/08/09 10:42:40;;;;;;;16.08;8.70;;;;;;;;;;4950853;28;20079;-52
2023/08/09 10:45:08;;;;;;;14.80;8.98;;;;;;;;;;4950236;28;20071;-52
2023/08/09 10:47:34;;;;;;;16.70;8.90;;;;;;;;;;4950770;28;20020;-56
2023/08/09 10:50:00;;;;;;;15.10;8.85;;;;;;;;;;4950736;28;20581;-53
2023/08/09 10:52:30;;;;;;;15.32;9.30;;;;;;;;;;4948035;28;20038;-54
2023/08/09 10:55:15;;;;;;;17.23;8.68;;;;;;;;;;4950240;28;20081;-56
2023/08/09 10:57:42;;;;;;;15.02;8.27;;;;;;;;;;4945772;28;20036;-52
2023/08/09 11:00:12;;;;;;;14.07;8.38;;;;;;;;;;4950446;28;20085;-55
2023/08/09 11:02:48;;;;;;;15.23;8.50;;;;;;;;;;4949247;28;20038;-56
2023/08/09 11:05:14;;;;;;;15.25;8.63;;;;;;;;;;4948958;28;20109;-55
2023/08/09 11:07:43;;;;;;;15.23;8.88;;;;;;;;;;4950802;28;20073;-58
2023/08/09 11:10:10;;;;;;;15.43;9.05;;;;;;;;;;4950328;28;20042;-54
2023/08/09 11:12:37;;;;;;;16.77;9.23;;;;;;;;;;4950188;28;20118;-56
2023/08/09 11:15:06;;;;;;;15.52;8.82;;;;;;;;;;4950118;28;20027;-56
2023/08/09 11:17:32;;;;;;;16.00;9.52;;;;;;;;;;4950235;28;20077;-51
2023/08/09 11:19:58;;;;;;;16.98;9.40;;;;;;;;;;4948957;28;20031;-57
2023/08/09 11:22:24;;;;;;;16.05;9.30;;;;;;;;;;4950212;28;20111;-53
2023/08/09 11:24:50;;;;;;;16.73;8.90;;;;;;;;;;4972379;28;20529;-51
2023/08/09 11:27:16;;;;;;;15.18;9.20;;;;;;;;;;4950093;28;20057;-53
2023/08/09 11:29:42;;;;;;;16.10;9.63;;;;;;;;;;4950355;28;20027;-54
2023/08/09 11:32:08;;;;;;;15.50;9.48;;;;;;;;;;4950171;28;20472;-52
2023/08/09 11:34:34;;;;;;;14.63;9.25;;;;;;;;;;4951370;28;20058;-56
2023/08/09 11:37:00;;;;;;;15.25;8.85;;;;;;;;;;4948257;28;20031;-56
2023/08/09 11:39:26;;;;;;;15.65;9.30;;;;;;;;;;4945390;28;20066;-54
2023/08/09 11:41:55;;;;;;;15.48;9.95;;;;;;;;;;4951504;28;20023;-57
2023/08/09 11:44:22;;;;;;;16.02;9.65;;;;;;;;;;4953613;28;20114;-51
2023/08/09 11:46:48;;;;;;;16.13;9.40;;;;;;;;;;4952675;28;20028;-52
2023/08/09 11:49:14;;;;;;;15.13;9.40;;;;;;;;;;4953752;28;20138;-53
2023/08/09 11:51:40;;;;;;;19.05;9.50;;;;;;;;;;4954570;28;20070;-53
2023/08/09 11:54:09;;;;;;;15.25;9.45;;;;;;;;;;4954180;28;20043;-55
2023/08/09 11:56:36;;;;;;;14.90;8.98;;;;;;;;;;4953438;28;20031;-55
2023/08/09 11:59:03;;;;;;;14.98;9.75;;;;;;;;;;4953491;28;20031;-56
2023/08/09 12:01:31;;;;;;;14.68;9.70;;;;;;;;;;4953163;28;20038;-57
2023/08/09 12:03:58;;;;;;;15.63;9.82;;;;;;;;;;4953012;28;20047;-56
2023/08/09 12:06:43;;;;;;;16.00;9.55;;;;;;;;;;4953174;28;20564;-54
2023/08/09 12:09:32;;;;;;;15.45;10.20;;;;;;;;;;4953203;28;20586;-56
2023/08/09 12:12:04;;;;;;;15.43;10.18;;;;;;;;;;4952873;28;20029;-54
2023/08/09 12:14:30;;;;;;;16.88;10.60;;;;;;;;;;4952823;28;20098;-54
2023/08/09 12:16:56;;;;;;;17.05;12.00;;;;;;;;;;4953006;28;20042;-53
2023/08/09 12:19:22;;;;;;;16.85;11.20;;;;;;;;;;4952992;28;20042;-52
2023/08/09 12:21:48;;;;;;;15.98;11.20;;;;;;;;;;4953469;28;20027;-57
2023/08/09 12:24:15;;;;;;;15.20;10.90;;;;;;;;;;4951327;28;20035;-55
2023/08/09 12:26:41;;;;;;;15.90;10.48;;;;;;;;;;4952574;28;20022;-56
2023/08/09 12:29:09;;;;;;;17.00;10.45;;;;;;;;;;4953066;28;20035;-56
2023/08/09 12:31:36;;;;;;;15.98;10.98;;;;;;;;;;4950325;28;20031;-56
2023/08/09 12:34:02;;;;;;;17.17;10.82;;;;;;;;;;4952381;28;20126;-59
2023/08/09 12:36:29;;;;;;;15.40;10.63;;;;;;;;;;4951328;28;20402;-59
2023/08/09 12:38:55;;;;;;;17.35;11.20;;;;;;;;;;4951759;28;20099;-57
2023/08/09 12:41:21;;;;;;;16.20;10.90;;;;;;;;;;4952785;28;20506;-54
2023/08/09 12:43:47;;;;;;;15.18;10.50;;;;;;;;;;4952471;28;20063;-54
2023/08/09 12:46:14;;;;;;;16.75;10.75;;;;;;;;;;4951112;28;20050;-57
2023/08/09 12:48:40;;;;;;;15.80;10.45;;;;;;;;;;4952459;28;20051;-56
2023/08/09 12:51:06;;;;;;;15.60;10.65;;;;;;;;;;4952621;28;20055;-54
2023/08/09 12:53:32;;;;;;;16.05;10.32;;;;;;;;;;4949742;28;20046;-56
2023/08/09 12:55:58;;;;;;;16.75;10.20;;;;;;;;;;4952092;28;20492;-56
2023/08/09 12:58:24;;;;;;;16.50;10.73;;;;;;;;;;4952507;28;20039;-53
2023/08/09 13:00:50;;;;;;;15.55;10.10;;;;;;;;;;4952559;28;20035;-59
2023/08/09 13:03:16;;;;;;;15.85;10.60;;;;;;;;;;4951619;28;20035;-51
2023/08/09 13:05:45;;;;;;;16.02;10.60;;;;;;;;;;4952408;28;20031;-53
2023/08/09 13:08:11;;;;;;;16.83;10.80;;;;;;;;;;4952490;28;20038;-58
2023/08/09 13:10:37;;;;;;;15.98;11.30;;;;;;;;;;4952101;28;20020;-58
2023/08/09 13:13:04;;;;;;;17.52;11.40;;;;;;;;;;4952003;28;20031;-58
2023/08/09 13:15:30;;;;;;;15.45;10.88;;;;;;;;;;4951716;28;20062;-53
2023/08/09 13:17:56;;;;;;;15.90;10.73;;;;;;;;;;4952253;28;20034;-54
2023/08/09 13:20:22;;;;;;;16.58;10.63;;;;;;;;;;4952173;28;20403;-57
2023/08/09 13:22:48;;;;;;;15.38;9.68;;;;;;;;;;4951727;28;20031;-57
2023/08/09 13:25:14;;;;;;;18.40;9.98;;;;;;;;;;4951873;28;20054;-51
2023/08/09 13:27:40;;;;;;;16.20;9.90;;;;;;;;;;4951873;28;20019;-57
2023/08/09 13:30:07;;;;;;;18.35;9.93;;;;;;;;;;4951859;28;20081;-57
2023/08/09 13:32:33;;;;;;;16.55;10.75;;;;;;;;;;4952089;28;20186;-55
2023/08/09 13:34:59;;;;;;;15.00;9.85;;;;;;;;;;4951521;28;20031;-59
2023/08/09 13:37:25;;;;;;;15.93;10.40;;;;;;;;;;4951951;28;20081;-55
2023/08/09 13:39:51;;;;;;;16.42;9.90;;;;;;;;;;4950599;28;20031;-53
2023/08/09 13:42:18;;;;;;;16.83;10.50;;;;;;;;;;4944606;28;20130;-57
2023/08/09 13:44:44;;;;;;;15.40;10.23;;;;;;;;;;4950354;28;20080;-56
2023/08/09 13:47:13;;;;;;;16.77;10.57;;;;;;;;;;4951566;28;20019;-50
2023/08/09 13:49:39;;;;;;;16.50;10.88;;;;;;;;;;4951730;28;20031;-55
2023/08/09 13:52:07;;;;;;;15.13;10.30;;;;;;;;;;4950820;28;20098;-58
2023/08/09 13:54:33;;;;;;;15.68;10.40;;;;;;;;;;4951423;28;20502;-58
2023/08/09 13:57:00;;;;;;;16.45;10.93;;;;;;;;;;4951483;28;20505;-56
2023/08/09 13:59:26;;;;;;;16.20;10.77;;;;;;;;;;4950497;28;20039;-54
2023/08/09 14:01:52;;;;;;;16.42;11.02;;;;;;;;;;4951326;28;20506;-52
2023/08/09 14:04:18;;;;;;;15.05;10.50;;;;;;;;;;4951133;28;20442;-55
2023/08/09 14:06:45;;;;;;;16.80;10.98;;;;;;;;;;4951504;28;20027;-56
2023/08/09 14:09:11;;;;;;;16.02;11.23;;;;;;;;;;4949909;28;20491;-55
2023/08/09 14:11:37;;;;;;;15.65;11.63;;;;;;;;;;4951193;28;20035;-53
2023/08/09 14:14:03;;;;;;;16.38;12.40;;;;;;;;;;4951104;28;20102;-51
2023/08/09 14:16:29;;;;;;;20.30;12.32;;;;;;;;;;4951334;28;20023;-58
2023/08/09 14:18:56;;;;;;;16.35;12.13;;;;;;;;;;4951069;28;20118;-64